Time;durP1;ratioP1;P1;durP2;ratioP2;P2;SDS_P1;SDS_P2;PMS_P1;PMS_P2;Temp;Humidity;BMP_temperature;BMP_pressure;BME280_temperature;BME280_humidity;BME280_pressure;Samples;Min_cycle;Max_cycle;Signal;HPM_P1;HPM_P2
2021/08/13 04:44:11;;;;;;;;;;;;;;;23.74;51.11;100709.41;1855887;77;20217;-69
2021/08/13 04:46:39;;;;;;;;;;;;;;;23.93;50.32;100715.88;1827506;78;20148;-71
2021/08/13 04:49:07;;;;;;;;;;;;;;;24.08;49.74;100716.61;1827646;78;21787;-70
2021/08/13 04:51:33;;;;;;;;;;;;;;;24.23;49.52;100725.70;1827891;78;20113;-70
2021/08/13 04:54:02;;;;;;;;;;;;;;;24.38;48.89;100722.83;1820244;78;20126;-68
2021/08/13 04:56:29;;;;;;;;;;;;;;;24.56;48.23;100724.90;1810343;79;20098;-70
2021/08/13 04:58:57;;;;;;;;;;;;;;;24.75;47.80;100718.50;1810383;79;20110;-70
2021/08/13 05:01:39;;;;;;;;;;;;;;;24.88;47.52;100720.19;1808662;79;21125;-71
2021/08/13 05:04:07;;;;;;;;;;;;;;;25.06;47.23;100712.61;1810059;79;20440;-70
2021/08/13 05:06:35;;;;;;;;;;;;;;;25.25;46.69;100724.30;1809056;78;20145;-71
2021/08/13 05:09:09;;;;;;;;;;;;;;;25.42;46.23;100720.66;1799165;78;20155;-72
2021/08/13 05:11:35;;;;;;;;;;;;;;;25.66;45.87;100724.36;1821676;78;20849;-69
2021/08/13 05:14:03;;;;;;;;;;;;;;;25.86;45.46;100729.20;1805108;78;22534;-69
2021/08/13 05:16:30;;;;;;;;;;;;;;;26.08;44.98;100726.31;1808406;78;20153;-68
2021/08/13 05:18:59;;;;;;;;;;;;;;;26.27;44.55;100733.13;1807678;78;20361;-69
2021/08/13 05:21:26;;;;;;;;;;;;;;;26.43;44.10;100733.59;1796851;78;20112;-71
2021/08/13 05:23:58;;;;;;;;;;;;;;;26.57;43.78;100733.72;1827738;78;20133;-68
2021/08/13 05:26:25;;;;;;;;;;;;;;;26.66;43.77;100725.69;1821564;78;22123;-68
2021/08/13 05:28:52;;;;;;;;;;;;;;;26.80;43.56;100724.42;1823477;78;20159;-68
2021/08/13 05:31:23;;;;;;;;;;;;;;;26.90;43.28;100721.55;1782126;78;20124;-69
2021/08/13 05:33:49;;;;;;;;;;;;;;;27.05;43.19;100726.52;1823835;78;20442;-72
2021/08/13 05:36:17;;;;;;;;;;;;;;;27.19;42.81;100727.61;1810198;78;20478;-73
2021/08/13 05:38:45;;;;;;;;;;;;;;;27.29;42.57;100734.05;1826779;78;21758;-69
2021/08/13 05:41:12;;;;;;;;;;;;;;;27.42;42.40;100730.28;1822948;78;20078;-69
2021/08/13 05:43:42;;;;;;;;;;;;;;;27.50;42.12;100731.06;1749231;80;20140;-68
2021/08/13 05:46:19;;;;;;;;;;;;;;;27.52;41.80;100730.88;1754233;81;20095;-79
2021/08/13 05:48:50;;;;;;;;;;;;;;;27.55;42.08;100734.53;1711295;82;20639;-72
2021/08/13 05:51:18;;;;;;;;;;;;;;;27.68;41.90;100746.81;1760273;80;21507;-70
2021/08/13 05:53:46;;;;;;;;;;;;;;;27.91;41.17;100747.30;1745224;81;20106;-73
2021/08/13 05:56:15;;;;;;;;;;;;;;;28.01;41.01;100741.16;1782850;80;20073;-74
2021/08/13 05:58:43;;;;;;;;;;;;;;;28.09;41.09;100745.94;1778019;80;20096;-75
2021/08/13 06:01:10;;;;;;;;;;;;;;;28.23;40.77;100752.37;1781807;80;20148;-75
2021/08/13 06:03:39;;;;;;;;;;;;;;;28.31;40.33;100755.47;1748926;82;21136;-71
2021/08/13 06:06:06;;;;;;;;;;;;;;;28.34;40.29;100753.27;1761304;80;20120;-70
2021/08/13 06:08:34;;;;;;;;;;;;;;;28.40;40.47;100753.00;1720964;82;20167;-74
2021/08/13 06:11:03;;;;;;;;;;;;;;;28.55;39.99;100754.68;1744186;82;20130;-73
2021/08/13 06:13:32;;;;;;;;;;;;;;;28.65;39.93;100751.72;1767242;81;20135;-71
2021/08/13 06:15:58;;;;;;;;;;;;;;;28.69;39.65;100750.84;1770957;81;21104;-75
2021/08/13 06:18:27;;;;;;;;;;;;;;;28.62;39.93;100752.59;1756661;81;20148;-72
2021/08/13 06:20:55;;;;;;;;;;;;;;;28.61;39.87;100750.94;1768027;80;20191;-73
2021/08/13 06:23:24;;;;;;;;;;;;;;;28.65;39.71;100748.20;1747463;82;20117;-73
2021/08/13 06:25:55;;;;;;;;;;;;;;;28.64;39.62;100741.19;1757885;80;20154;-75
2021/08/13 06:28:23;;;;;;;;;;;;;;;28.73;39.54;100750.28;1734364;81;21897;-71
2021/08/13 06:30:52;;;;;;;;;;;;;;;28.82;39.53;100746.49;1751374;81;20458;-73
2021/08/13 06:33:19;;;;;;;;;;;;;;;28.89;39.55;100746.58;1737929;81;20089;-73
2021/08/13 06:35:45;;;;;;;;;;;;;;;29.02;39.24;100761.48;1754597;82;20439;-76
2021/08/13 06:38:12;;;;;;;;;;;;;;;29.12;39.13;100758.52;1754218;81;20139;-72
2021/08/13 06:40:41;;;;;;;;;;;;;;;29.19;38.97;100760.77;1756404;80;20993;-73
2021/08/13 06:43:08;;;;;;;;;;;;;;;29.27;38.79;100754.42;1753417;82;20087;-70
2021/08/13 06:45:35;;;;;;;;;;;;;;;29.31;38.89;100750.34;1779980;80;20141;-74
2021/08/13 06:48:04;;;;;;;;;;;;;;;29.35;38.41;100754.31;1770409;80;20178;-74
2021/08/13 06:50:33;;;;;;;;;;;;;;;29.28;38.11;100758.26;1781900;80;20419;-75
2021/08/13 06:53:04;;;;;;;;;;;;;;;28.92;38.57;100758.27;1778075;80;20123;-71
2021/08/13 06:55:31;;;;;;;;;;;;;;;28.69;39.10;100757.55;1722848;82;20205;-72
2021/08/13 06:58:00;;;;;;;;;;;;;;;28.58;39.90;100752.64;1745795;80;20095;-71
2021/08/13 07:00:27;;;;;;;;;;;;;;;28.70;39.62;100750.66;1753011;81;20093;-71
2021/08/13 07:02:54;;;;;;;;;;;;;;;28.85;39.25;100745.28;1753985;80;20082;-72
2021/08/13 07:05:21;;;;;;;;;;;;;;;29.03;38.98;100746.23;1752497;81;21142;-71
2021/08/13 07:07:48;;;;;;;;;;;;;;;29.22;38.65;100745.61;1743219;82;20071;-70
2021/08/13 07:10:15;;;;;;;;;;;;;;;29.33;38.31;100743.77;1737333;80;20119;-70
2021/08/13 07:12:43;;;;;;;;;;;;;;;29.44;37.89;100749.17;1741873;81;20070;-70
2021/08/13 07:15:11;;;;;;;;;;;;;;;29.47;37.78;100744.77;1735608;81;20168;-70
2021/08/13 07:17:40;;;;;;;;;;;;;;;29.45;37.51;100746.81;1750040;81;21089;-70
2021/08/13 07:20:08;;;;;;;;;;;;;;;29.21;37.87;100750.14;1738467;82;20488;-69
2021/08/13 07:22:36;;;;;;;;;;;;;;;29.11;38.36;100750.15;1769912;80;20143;-69
2021/08/13 07:25:02;;;;;;;;;;;;;;;29.10;38.51;100745.30;1767490;80;20156;-68
2021/08/13 07:27:29;;;;;;;;;;;;;;;29.23;37.99;100744.59;1752404;82;20126;-72
2021/08/13 07:29:57;;;;;;;;;;;;;;;29.25;37.72;100745.23;1782792;80;22065;-72
2021/08/13 07:32:26;;;;;;;;;;;;;;;29.21;37.68;100743.94;1756428;81;20117;-74
2021/08/13 07:34:54;;;;;;;;;;;;;;;29.21;37.51;100745.28;1762729;80;20102;-72
2021/08/13 07:37:22;;;;;;;;;;;;;;;29.04;37.22;100742.02;1777205;80;20620;-68
2021/08/13 07:39:51;;;;;;;;;;;;;;;28.79;38.12;100750.05;1759039;81;20116;-73
2021/08/13 07:42:26;;;;;;;;;;;;;;;28.79;38.34;100753.53;1749827;81;20148;-73
2021/08/13 07:44:50;;;;;;;;;;;;;;;28.88;38.05;100759.15;1768760;80;20278;-72
2021/08/13 07:47:18;;;;;;;;;;;;;;;28.94;38.02;100750.04;1768849;80;20127;-73
2021/08/13 07:49:46;;;;;;;;;;;;;;;28.89;37.92;100754.62;1767421;80;20429;-74
2021/08/13 07:52:13;;;;;;;;;;;;;;;28.78;37.92;100761.28;1712600;83;20129;-74
2021/08/13 07:54:45;;;;;;;;;;;;;;;28.66;38.19;100753.89;1697031;84;21149;-71
2021/08/13 07:57:13;;;;;;;;;;;;;;;28.54;38.55;100746.31;1669270;84;20099;-71
2021/08/13 07:59:41;;;;;;;;;;;;;;;28.53;38.88;100745.16;1745062;82;20134;-71
2021/08/13 08:02:09;;;;;;;;;;;;;;;28.57;38.06;100746.45;1745697;82;20127;-75
2021/08/13 08:04:37;;;;;;;;;;;;;;;28.58;38.01;100749.97;1745830;82;20087;-73
2021/08/13 08:07:04;;;;;;;;;;;;;;;28.71;38.07;100752.83;1745796;82;21953;-72
2021/08/13 08:09:31;;;;;;;;;;;;;;;28.98;37.86;100744.63;1745649;82;20420;-75
2021/08/13 08:11:57;;;;;;;;;;;;;;;29.21;37.70;100745.28;1775085;80;20624;-77
2021/08/13 08:14:24;;;;;;;;;;;;;;;29.39;37.10;100743.52;1775234;80;20457;-72
2021/08/13 08:16:50;;;;;;;;;;;;;;;29.48;36.41;100745.09;1776605;80;20100;-73
2021/08/13 08:19:17;;;;;;;;;;;;;;;29.46;36.74;100739.91;1780732;79;21120;-74
2021/08/13 08:21:43;;;;;;;;;;;;;;;29.52;36.67;100745.03;1773818;80;20120;-70
2021/08/13 08:24:13;;;;;;;;;;;;;;;29.46;36.31;100753.33;1778841;80;20444;-73
2021/08/13 08:26:40;;;;;;;;;;;;;;;29.20;36.52;100756.52;1780510;80;20078;-75
2021/08/13 08:29:09;;;;;;;;;;;;;;;29.04;36.79;100751.41;1781340;80;20133;-75
2021/08/13 08:31:36;;;;;;;;;;;;;;;28.93;37.22;100747.87;1780048;80;21683;-73
2021/08/13 08:34:03;;;;;;;;;;;;;;;28.85;37.48;100750.14;1777114;80;20094;-71
2021/08/13 08:36:30;;;;;;;;;;;;;;;28.72;38.02;100763.88;1781058;80;20166;-74
2021/08/13 08:38:59;;;;;;;;;;;;;;;28.63;38.20;100760.97;1753264;80;20092;-70
2021/08/13 08:41:26;;;;;;;;;;;;;;;28.68;38.08;100767.94;1771667;80;20124;-69
2021/08/13 08:43:52;;;;;;;;;;;;;;;28.74;37.13;100764.52;1776248;80;21073;-75
2021/08/13 08:46:20;;;;;;;;;;;;;;;28.78;37.28;100761.80;1777606;80;20115;-73
2021/08/13 08:48:52;;;;;;;;;;;;;;;28.91;37.83;100769.17;1748570;80;20375;-72
2021/08/13 08:51:19;;;;;;;;;;;;;;;29.05;37.64;100766.48;1769388;80;20120;-71
2021/08/13 08:53:52;;;;;;;;;;;;;;;29.24;37.41;100770.90;1769952;80;20104;-72
2021/08/13 08:56:18;;;;;;;;;;;;;;;29.29;36.49;100767.14;1773578;80;21049;-75
2021/08/13 08:58:46;;;;;;;;;;;;;;;29.31;36.31;100779.34;1766279;80;20565;-74
2021/08/13 09:01:14;;;;;;;;;;;;;;;29.14;36.32;100771.23;1770481;80;20092;-70
2021/08/13 09:03:42;;;;;;;;;;;;;;;28.86;36.53;100771.91;1776141;80;20225;-75
2021/08/13 09:06:09;;;;;;;;;;;;;;;28.60;37.06;100770.71;1765059;80;20422;-74
2021/08/13 09:08:37;;;;;;;;;;;;;;;28.46;37.06;100775.87;1765567;80;21543;-72
2021/08/13 09:11:06;;;;;;;;;;;;;;;28.48;37.15;100777.03;1759732;80;20088;-71
2021/08/13 09:13:35;;;;;;;;;;;;;;;28.56;37.34;100772.92;1767216;80;20072;-75
2021/08/13 09:16:13;;;;;;;;;;;;;;;28.64;37.63;100773.34;1775997;80;20147;-72
2021/08/13 09:18:47;;;;;;;;;;;;;;;28.68;37.59;100767.43;1768446;80;20407;-75
2021/08/13 09:21:17;;;;;;;;;;;;;;;28.63;37.19;100779.72;1763693;80;21110;-70
2021/08/13 09:23:45;;;;;;;;;;;;;;;28.36;37.69;100771.83;1767199;80;20116;-74
2021/08/13 09:26:15;;;;;;;;;;;;;;;28.06;38.53;100778.94;1748872;81;20454;-72
2021/08/13 09:29:04;;;;;;;;;;;;;;;27.74;38.54;100768.84;1778856;80;20072;-72
2021/08/13 09:31:51;;;;;;;;;;;;;;;27.25;39.52;100779.02;1714141;80;20383;-73
2021/08/13 09:34:28;;;;;;;;;;;;;;;26.72;40.57;100783.27;1768937;80;21126;-73
2021/08/13 09:36:55;;;;;;;;;;;;;;;26.37;41.23;100786.38;1739659;80;20187;-73
2021/08/13 09:39:31;;;;;;;;;;;;;;;26.22;41.57;100780.86;1767987;80;20080;-69
2021/08/13 09:42:01;;;;;;;;;;;;;;;26.29;41.80;100774.34;1775599;80;20155;-71
2021/08/13 09:44:40;;;;;;;;;;;;;;;26.40;41.93;100777.50;1775217;80;20089;-72
2021/08/13 09:47:13;;;;;;;;;;;;;;;26.46;40.73;100778.16;1768332;80;21732;-68
2021/08/13 09:49:41;;;;;;;;;;;;;;;26.25;40.88;100778.69;1769532;80;20072;-67
2021/08/13 09:52:12;;;;;;;;;;;;;;;26.06;41.25;100776.36;1773973;80;20093;-68
2021/08/13 09:54:40;;;;;;;;;;;;;;;25.96;41.74;100782.90;1769518;80;20119;-68
2021/08/13 09:57:11;;;;;;;;;;;;;;;25.97;42.06;100778.73;1738634;80;20172;-67
2021/08/13 09:59:47;;;;;;;;;;;;;;;25.99;42.23;100779.91;1770643;80;21080;-68
2021/08/13 10:02:31;;;;;;;;;;;;;;;26.00;42.32;100773.53;1751805;80;20135;-68
2021/08/13 10:04:59;;;;;;;;;;;;;;;26.02;42.26;100782.20;1764740;81;20132;-67
2021/08/13 10:07:43;;;;;;;;;;;;;;;26.05;41.87;100781.87;1763784;80;20178;-70
2021/08/13 10:10:18;;;;;;;;;;;;;;;26.04;42.00;100773.53;1768863;80;20155;-67
2021/08/13 10:12:46;;;;;;;;;;;;;;;26.03;42.01;100777.20;1782837;80;21517;-67
2021/08/13 10:15:38;;;;;;;;;;;;;;;25.96;42.32;100771.73;1778571;80;20088;-73
2021/08/13 10:18:13;;;;;;;;;;;;;;;25.90;42.84;100776.39;1783312;80;20141;-68
2021/08/13 10:20:54;;;;;;;;;;;;;;;25.89;42.57;100771.56;1771734;80;20120;-71
2021/08/13 10:23:25;;;;;;;;;;;;;;;25.97;41.53;100767.22;1764439;81;20096;-68
2021/08/13 10:25:59;;;;;;;;;;;;;;;26.03;41.59;100767.36;1762505;81;20624;-68
2021/08/13 10:28:35;;;;;;;;;;;;;;;26.11;41.86;100766.52;1767641;81;20072;-68
2021/08/13 10:31:06;;;;;;;;;;;;;;;26.16;42.11;100769.02;1762072;81;20084;-69
2021/08/13 10:33:40;;;;;;;;;;;;;;;26.21;41.81;100772.52;1765929;81;20476;-68
2021/08/13 10:36:07;;;;;;;;;;;;;;;26.15;41.11;100767.35;1766296;81;20136;-68
2021/08/13 10:38:34;;;;;;;;;;;;;;;26.07;41.58;100765.19;1744541;81;21050;-69
2021/08/13 10:41:38;;;;;;;;;;;;;;;26.05;41.25;100772.53;1767754;81;20217;-70
2021/08/13 10:44:15;;;;;;;;;;;;;;;26.06;41.23;100778.20;1762849;80;20080;-69
2021/08/13 10:50:06;;;;;;;;;;;;;;;26.20;41.28;100778.86;1767144;81;20128;-70
2021/08/13 10:52:37;;;;;;;;;;;;;;;26.33;40.81;100780.55;1745669;82;21067;-67
2021/08/13 10:55:36;;;;;;;;;;;;;;;26.51;40.92;100777.65;1745281;82;20099;-67
2021/08/13 10:58:03;;;;;;;;;;;;;;;26.66;40.49;100773.27;1745888;82;20437;-66
2021/08/13 11:01:00;;;;;;;;;;;;;;;26.79;40.11;100775.41;1745310;82;20115;-66
2021/08/13 11:03:29;;;;;;;;;;;;;;;26.87;39.79;100774.84;1745854;82;20119;-69
2021/08/13 11:05:59;;;;;;;;;;;;;;;26.94;39.46;100778.99;1709888;80;21769;-68
2021/08/13 11:08:46;;;;;;;;;;;;;;;26.94;39.47;100778.16;1724267;82;20109;-67
2021/08/13 11:11:13;;;;;;;;;;;;;;;26.88;39.28;100781.85;1749832;81;20139;-68
2021/08/13 11:13:49;;;;;;;;;;;;;;;26.82;38.90;100785.22;1749124;80;20097;-72
2021/08/13 11:16:32;;;;;;;;;;;;;;;26.78;38.80;100788.44;1769365;80;20136;-67
2021/08/13 11:19:10;;;;;;;;;;;;;;;26.78;38.92;100787.09;1742869;81;20182;-70
2021/08/13 11:21:49;;;;;;;;;;;;;;;26.79;39.18;100782.09;1757052;81;20169;-66
2021/08/13 11:24:20;;;;;;;;;;;;;;;26.72;39.43;100779.27;1752054;82;20419;-67
2021/08/13 11:27:03;;;;;;;;;;;;;;;26.72;39.56;100777.09;1750936;82;20175;-68
2021/08/13 11:29:38;;;;;;;;;;;;;;;26.77;39.03;100770.23;1750020;81;20068;-67
2021/08/13 11:32:17;;;;;;;;;;;;;;;26.80;38.68;100772.53;1753449;80;21845;-67
2021/08/13 11:35:02;;;;;;;;;;;;;;;26.72;39.27;100781.10;1747379;82;20134;-68
2021/08/13 11:37:42;;;;;;;;;;;;;;;26.64;39.04;100785.13;1722389;83;20119;-69
2021/08/13 11:40:17;;;;;;;;;;;;;;;26.58;38.68;100782.14;1694599;83;20162;-68
2021/08/13 11:42:55;;;;;;;;;;;;;;;26.48;38.88;100778.83;1751932;82;20113;-68
2021/08/13 11:45:39;;;;;;;;;;;;;;;26.37;39.30;100775.70;1751887;81;21147;-68
2021/08/13 11:48:10;;;;;;;;;;;;;;;26.25;39.64;100769.34;1726066;82;20149;-68
2021/08/13 11:50:41;;;;;;;;;;;;;;;26.19;39.79;100778.53;1742814;82;20126;-69
2021/08/13 11:53:08;;;;;;;;;;;;;;;26.12;40.07;100765.52;1775889;80;21083;-68
2021/08/13 11:55:36;;;;;;;;;;;;;;;26.14;40.00;100765.69;1763899;80;20143;-69
2021/08/13 11:58:05;;;;;;;;;;;;;;;26.16;39.94;100776.20;1744413;80;21554;-67
2021/08/13 12:00:36;;;;;;;;;;;;;;;26.16;39.33;100766.85;1762081;80;20181;-69
2021/08/13 12:03:05;;;;;;;;;;;;;;;26.13;39.74;100764.52;1774744;80;20084;-70
2021/08/13 12:05:34;;;;;;;;;;;;;;;26.13;39.78;100765.85;1739343;80;20615;-68
2021/08/13 12:08:05;;;;;;;;;;;;;;;26.22;39.82;100770.18;1762100;80;20073;-67
2021/08/13 12:10:35;;;;;;;;;;;;;;;26.36;39.73;100763.36;1772033;80;20089;-69
2021/08/13 12:13:12;;;;;;;;;;;;;;;26.47;39.46;100762.47;1767628;80;20084;-67
2021/08/13 12:15:41;;;;;;;;;;;;;;;26.54;39.15;100767.96;1760607;80;20198;-67
2021/08/13 12:18:11;;;;;;;;;;;;;;;26.57;38.52;100765.78;1765832;80;20097;-68
2021/08/13 12:20:46;;;;;;;;;;;;;;;26.58;38.44;100755.93;1767000;81;20081;-68
2021/08/13 12:23:13;;;;;;;;;;;;;;;26.57;38.33;100761.77;1756766;81;20575;-67
2021/08/13 12:25:42;;;;;;;;;;;;;;;26.60;38.29;100769.12;1765253;81;20124;-68
2021/08/13 12:28:11;;;;;;;;;;;;;;;26.56;37.89;100770.80;1770933;81;20076;-68
2021/08/13 12:30:39;;;;;;;;;;;;;;;26.45;38.17;100767.14;1759020;81;20440;-67
2021/08/13 12:33:05;;;;;;;;;;;;;;;26.34;38.43;100778.21;1744038;80;20132;-67
2021/08/13 12:35:41;;;;;;;;;;;;;;;26.24;38.69;100774.85;1731874;80;21111;-71
2021/08/13 12:38:09;;;;;;;;;;;;;;;26.10;38.56;100775.03;1776736;80;20116;-73
2021/08/13 12:40:48;;;;;;;;;;;;;;;25.98;38.10;100783.07;1777496;80;20141;-80
2021/08/13 12:43:17;;;;;;;;;;;;;;;25.84;37.91;100777.89;1745195;80;20182;-75
2021/08/13 12:45:44;;;;;;;;;;;;;;;25.76;38.65;100769.88;1762527;80;20073;-75
2021/08/13 12:48:11;;;;;;;;;;;;;;;25.77;38.55;100768.05;1737144;80;21764;-71
2021/08/13 12:50:39;;;;;;;;;;;;;;;25.72;38.40;100773.88;1759481;80;20601;-76
2021/08/13 12:53:11;;;;;;;;;;;;;;;25.63;38.58;100781.50;1723297;80;20130;-74
2021/08/13 12:55:44;;;;;;;;;;;;;;;25.56;38.62;100777.86;1766694;80;20147;-76
2021/08/13 12:58:30;;;;;;;;;;;;;;;25.56;38.38;100777.36;1760100;80;20152;-74
2021/08/13 13:04:38;;;;;;;;;;;;;;;25.75;37.19;100771.38;1741809;82;20091;-71
2021/08/13 13:07:10;;;;;;;;;;;;;;;25.88;37.20;100768.55;1737086;82;20120;-73
2021/08/13 13:09:42;;;;;;;;;;;;;;;26.02;37.39;100768.86;1734042;82;20127;-71
2021/08/13 13:12:19;;;;;;;;;;;;;;;26.12;37.31;100770.36;1726373;82;20136;-73
2021/08/13 13:14:49;;;;;;;;;;;;;;;26.21;36.52;100769.34;1747897;82;21048;-75
2021/08/13 13:17:18;;;;;;;;;;;;;;;26.26;36.48;100763.50;1741158;82;20417;-73
2021/08/13 13:20:10;;;;;;;;;;;;;;;26.29;36.82;100767.67;1738401;82;20118;-74
2021/08/13 13:22:39;;;;;;;;;;;;;;;26.29;35.85;100769.01;1742271;82;20148;-75
2021/08/13 13:25:17;;;;;;;;;;;;;;;26.23;35.58;100769.18;1747571;82;20087;-72
2021/08/13 13:28:01;;;;;;;;;;;;;;;26.10;35.78;100771.02;1733320;82;21379;-76
2021/08/13 13:30:47;;;;;;;;;;;;;;;25.97;36.24;100765.89;1735709;82;20103;-74
2021/08/13 13:33:24;;;;;;;;;;;;;;;25.84;36.97;100771.72;1723195;82;20199;-73
2021/08/13 13:36:05;;;;;;;;;;;;;;;25.78;37.01;100762.55;1745088;81;20083;-71
2021/08/13 13:38:35;;;;;;;;;;;;;;;25.73;36.98;100764.88;1750002;82;20183;-70
2021/08/13 13:41:04;;;;;;;;;;;;;;;25.71;37.51;100760.20;1746591;81;21164;-72
2021/08/13 13:43:36;;;;;;;;;;;;;;;25.72;37.42;100762.37;1742283;81;20118;-72
2021/08/13 13:46:07;;;;;;;;;;;;;;;25.74;37.30;100759.88;1735843;81;20125;-71
2021/08/13 13:48:34;;;;;;;;;;;;;;;25.78;37.34;100756.38;1736637;82;20221;-72
2021/08/13 13:51:02;;;;;;;;;;;;;;;25.84;37.29;100757.05;1740546;81;20150;-73
2021/08/13 13:53:30;;;;;;;;;;;;;;;25.91;37.34;100754.88;1735660;82;21057;-72
2021/08/13 13:56:00;;;;;;;;;;;;;;;26.02;37.17;100752.84;1736408;81;20426;-73
2021/08/13 13:58:28;;;;;;;;;;;;;;;26.10;37.07;100753.67;1741836;81;20129;-79
2021/08/13 14:00:56;;;;;;;;;;;;;;;26.19;36.35;100750.00;1744319;81;20110;-71
